Livermore, California
Current Conditions -  °F | °C
As of 11:53 AM on Sunday 25 Jan 2015 (Local Time) from KLVK Reporting Station
Clear Clear  
Wind Chill: 51°   Ceiling: Unl
Heat Index: 51°   Visibility: 9mi
Dew Point: 44°   Wind: 8mph
Humidity: 77%   Direction: 100°E
Pressure: 30.13"   Gusts: NA
Location:  37.68°N, 121.75°W
Report Text: KLVK 251953Z 10007KT 9SM CLR 11/07 A3013 RMK AO2 SLP202 T01060067
Loading
Personal Weather Stations






























Interactive Weather Map New forecast layout! Learn more

10-Day Weather Forecast

Advertisements
Track Severe Weather on mobile